Flight Track Log - Related Links

Times and Time Zones

All times are in EDT time to prevent confusion due to time zone crossing. See the FDX1413 flight status page for this flight to view local times or setup timezone preferences in your user account.

Time Position Orientation Groundspeed Altitude Reporting Facility
EDT Latitude Longitude Course Direction KTS MPH feet Rate Location/Type
Sat 05:26:57 AM 35.0667 -89.9667 321° Northwest 177 204 1,300  Level KMEM
Sat 05:27:39 AM 35.1000 -90.0000 321° Northwest 236 272 1,900 2,250 Climbing KMEM
Sat 05:28:33 AM 35.1333 -90.0667 301° West 274 315 4,900 3,250 Climbing KMEM
Sat 05:29:39 AM 35.1167 -90.1667 259° West 275 316 8,400 2,643 Climbing KMEM
Sat 05:30:56 AM 35.1053 -90.2808 263° West 291 335 11,200 1,971 Climbing Memphis Center
Sat 05:31:56 AM 35.0867 -90.4053 260° West 341 392 12,900 2,150 Climbing Memphis Center
Sat 05:32:56 AM 35.0678 -90.5397 260° West 396 456 15,500 2,800 Climbing Memphis Center
Sat 05:33:56 AM 35.0467 -90.6842 260° West 425 489 18,500 2,650 Climbing Memphis Center
Sat 05:34:56 AM 35.0294 -90.8289 262° West 430 495 20,800 2,350 Climbing Memphis Center
Sat 05:35:56 AM 35.0456 -90.9811 277° West 442 509 23,200 2,400 Climbing Memphis Center
Sat 05:36:56 AM 35.0614 -91.1358 277° West 458 527 25,600 3,050 Climbing Memphis Center
Sat 05:37:56 AM 35.0831 -91.2986 279° West 458 527 29,300 2,700 Climbing Memphis Center
Sat 05:38:56 AM 35.0967 -91.4331 277° West 429 494 31,000 1,350 Climbing Memphis Center
Sat 05:39:56 AM 35.1119 -91.5731 278° West 424 488 32,000 500 Climbing Memphis Center
Sat 05:40:56 AM 35.1272 -91.7103 278° West 419 482 32,000  Level Memphis Center
Sat 05:41:56 AM 35.1425 -91.8528 278° West 419 482 32,000  Level Memphis Center
Sat 05:42:56 AM 35.1594 -91.9878 279° West 414 476 32,000  Level Memphis Center
Sat 05:43:56 AM 35.1742 -92.1278 277° West 414 476 32,000  Level Memphis Center
Sat 05:44:56 AM 35.1889 -92.2678 277° West 419 482 32,000 50 Level Memphis Center
Sat 05:45:56 AM 35.2053 -92.4103 278° West 419 482 32,100 850 Climbing Memphis Center
Sat 05:46:56 AM 35.2197 -92.5481 277° West 425 489 33,700 950 Climbing Memphis Center
Sat 05:47:56 AM 35.2339 -92.6856 277° West 425 489 34,000 150 Climbing Memphis Center
Sat 05:48:56 AM 35.2481 -92.8131 278° West 425 489 34,000  Level Memphis Center
Sat 05:49:56 AM 35.2600 -92.9483 276° West 419 482 34,000  Level Memphis Center
Sat 05:50:56 AM 35.2758 -93.0911 278° West 419 482 34,000  Level Memphis Center
Sat 05:51:56 AM 35.2872 -93.2264 276° West 419 482 34,000  Level Memphis Center
Sat 05:52:56 AM 35.3067 -93.3847 279° West 419 482 34,000  Level Memphis Center
Sat 05:53:56 AM 35.3161 -93.5047 276° West 419 482 34,000  Level Memphis Center
Sat 05:54:56 AM 35.3292 -93.6453 277° West 414 476 34,000  Level Memphis Center
Sat 05:55:56 AM 35.3422 -93.7831 277° West 414 476 34,000  Level Memphis Center
Sat 05:56:56 AM 35.3569 -93.9236 277° West 414 476 34,000 50 Level Memphis Center
Sat 05:57:56 AM 35.3694 -94.0644 276° West 414 476 34,100  Climbing Memphis Center
Sat 05:58:56 AM 35.3819 -94.2075 276° West 424 488 34,000 -50 Descending Memphis Center
Sat 05:59:56 AM 35.3872 -94.3681 272° West 430 495 34,000  Level Memphis Center
Sat 06:00:56 AM 35.3889 -94.5108 271° West 430 495 34,000  Level Memphis Center
Sat 06:02:49 AM 35.3886 -94.7628 270° West 414 476 34,000  Level Fort Center
Sat 06:03:49 AM 35.3894 -94.9028 270° West 414 476 34,000 50 Level Fort Center
Sat 06:04:49 AM 35.3881 -95.0481 269° West 421 484 34,100 50 Climbing Fort Center
Sat 06:05:49 AM 35.3908 -95.1906 271° West 421 484 34,100  Level Fort Center
Sat 06:11:47 AM 35.3840 -96.0560 271° West 433 498 34,100 -15 Level FlightAware
Sat 06:12:32 AM 35.3830 -96.1640 269° West 438 504 34,000 -71 Descending FlightAware
Sat 06:13:12 AM 35.3820 -96.2630 269° West 441 507 34,000 75 Level FlightAware
Sat 06:13:52 AM 35.3810 -96.3610 269° West 442 509 34,100 71 Climbing FlightAware
Sat 06:14:37 AM 35.3790 -96.4730 269° West 438 504 34,100 -71 Level FlightAware
Sat 06:15:17 AM 35.3780 -96.5720 269° West 433 498 34,000 -75 Descending FlightAware
Sat 06:15:57 AM 35.3760 -96.6720 269° West 433 498 34,000  Level FlightAware
Sat 06:16:42 AM 35.3750 -96.7830 269° West 436 502 34,000  Level FlightAware
Sat 06:17:22 AM 35.3730 -96.8810 269° West 435 501 34,000  Level FlightAware
Sat 06:18:07 AM 35.3710 -96.9900 269° West 437 503 34,000  Level FlightAware
Sat 06:18:47 AM 35.3690 -97.0850 269° West 437 503 34,000  Level FlightAware
Sat 06:19:27 AM 35.3680 -97.1880 269° West 438 504 34,000 71 Level FlightAware
Sat 06:20:12 AM 35.3660 -97.3000 269° West 440 506 34,100 71 Climbing FlightAware
Sat 06:20:52 AM 35.3630 -97.4020 268° West 441 507 34,100 -71 Level FlightAware
Sat 06:21:37 AM 35.3610 -97.5140 269° West 442 509 34,000  Descending FlightAware
Sat 06:22:17 AM 35.3590 -97.6120 269° West 442 509 34,100 71 Climbing FlightAware
Sat 06:23:02 AM 35.3560 -97.7130 268° West 442 509 34,100 -71 Level FlightAware
Sat 06:23:42 AM 35.3560 -97.8250 270° West 443 510 34,000 -71 Descending FlightAware
Sat 06:24:27 AM 35.3540 -97.9400 269° West 444 511 34,000  Level FlightAware
Sat 06:25:07 AM 35.3520 -98.0400 269° West 444 511 34,000  Level FlightAware
Sat 06:25:47 AM 35.3510 -98.1330 269° West 445 512 34,000  Level FlightAware
Sat 06:26:22 AM 35.3480 -98.2170 268° West 445 512 34,000  Level FlightAware
Sat 06:27:12 AM 35.3450 -98.3240 268° West 445 512 34,000  Level FlightAware
Sat 06:27:52 AM 35.3430 -98.4100 268° West 445 512 34,000  Level FlightAware
Sat 06:28:32 AM 35.3400 -98.4950 268° West 445 512 34,000  Level FlightAware
Sat 06:29:12 AM 35.3380 -98.5810 268° West 445 512 34,000  Level FlightAware
Sat 06:30:02 AM 35.3350 -98.6880 268° West 445 512 34,000  Level FlightAware
Sat 06:30:42 AM 35.3320 -98.7740 268° West 445 512 34,000  Level FlightAware
Sat 06:31:22 AM 35.3300 -98.8600 268° West 445 512 34,000  Level FlightAware
Sat 06:32:02 AM 35.3280 -98.9460 268° West 445 512 34,000  Level FlightAware
Sat 06:32:42 AM 35.3250 -99.0310 268° West 445 512 34,000  Level FlightAware
Sat 06:33:32 AM 35.3220 -99.1390 268° West 445 512 34,000  Level FlightAware
Sat 06:34:12 AM 35.3200 -99.2240 268° West 445 512 34,000  Level FlightAware
Sat 06:34:52 AM 35.3170 -99.3100 268° West 445 512 34,000  Level FlightAware
Sat 06:35:32 AM 35.3150 -99.3960 268° West 445 512 34,000 61 Level FlightAware
Sat 06:36:30 AM 35.3114 -99.7789 268° West 458 527 34,100 50 Climbing Albuquerque Center
Sat 06:37:31 AM 35.3064 -99.9367 268° West 461 531 34,100 -50 Level Albuquerque Center
Sat 06:38:31 AM 35.3014 -100.0931 268° West 458 527 34,000 -50 Descending Albuquerque Center
Sat 06:39:31 AM 35.2964 -100.2458 268° West 451 519 34,000  Level Albuquerque Center
Sat 06:40:31 AM 35.2914 -100.3992 268° West 449 517 34,000  Level Albuquerque Center
Sat 06:41:31 AM 35.2847 -100.5536 267° West 452 520 34,000 50 Level Albuquerque Center
Sat 06:42:31 AM 35.2800 -100.6869 268° West 459 528 34,100 50 Climbing Albuquerque Center
Sat 06:43:31 AM 35.2733 -100.8467 267° West 468 539 34,100  Level Albuquerque Center
Sat 06:44:31 AM 35.2669 -101.0058 267° West 471 542 34,100 -50 Level Albuquerque Center
Sat 06:45:31 AM 35.2589 -101.1967 267° West 469 540 34,000 -50 Descending Albuquerque Center
Sat 06:46:32 AM 35.2525 -101.3519 267° West 467 537 34,000  Level Albuquerque Center
Sat 06:47:32 AM 35.2456 -101.5125 267° West 471 542 34,000  Level Albuquerque Center
Sat 06:48:32 AM 35.2369 -101.6756 266° West 474 545 34,000 50 Level Albuquerque Center
Sat 06:49:32 AM 35.2317 -101.8136 267° West 480 552 34,100 50 Climbing Albuquerque Center
Sat 06:50:32 AM 35.2292 -101.9875 269° West 485 558 34,100  Level Albuquerque Center
Sat 06:51:32 AM 35.2253 -102.1547 268° West 490 564 34,100 -50 Level Albuquerque Center
Sat 06:52:32 AM 35.2214 -102.3208 268° West 491 565 34,000 -50 Descending Albuquerque Center
Sat 06:53:32 AM 35.2172 -102.4869 268° West 490 564 34,000  Level Albuquerque Center
Sat 06:54:32 AM 35.2119 -102.6550 268° West 495 570 34,000  Level Albuquerque Center
Sat 06:55:33 AM 35.2078 -102.8208 268° West 491 565 34,000  Level Albuquerque Center
Sat 06:56:33 AM 35.2033 -102.9897 268° West 490 564 34,000 50 Level Albuquerque Center
Sat 06:57:33 AM 35.1975 -103.1586 268° West 493 567 34,100 50 Climbing Albuquerque Center
Sat 06:58:33 AM 35.1928 -103.3272 268° West 493 567 34,100 -50 Level Albuquerque Center
Sat 06:59:33 AM 35.1867 -103.4939 267° West 489 563 34,000 -50 Descending Albuquerque Center
Sat 07:00:33 AM 35.1806 -103.6619 268° West 491 565 34,000  Level Albuquerque Center
Sat 07:01:33 AM 35.1758 -103.8297 268° West 490 564 34,000  Level Albuquerque Center
Sat 07:02:33 AM 35.1714 -103.9833 268° West 489 563 34,000  Level Albuquerque Center
Sat 07:03:33 AM 35.1664 -104.1489 268° West 489 563 34,000  Level Albuquerque Center
Sat 07:04:34 AM 35.1608 -104.3139 268° West 488 562 34,000 50 Level Albuquerque Center
Sat 07:05:34 AM 35.1533 -104.4814 267° West 493 567 34,100 50 Climbing Albuquerque Center
Sat 07:06:34 AM 35.1467 -104.6533 267° West 494 568 34,100 -50 Level Albuquerque Center
Sat 07:07:34 AM 35.1400 -104.8206 267° West 489 563 34,000 -50 Descending Albuquerque Center
Sat 07:08:34 AM 35.1331 -104.9864 267° West 486 559 34,000  Level Albuquerque Center
Sat 07:09:34 AM 35.1269 -105.1525 267° West 485 558 34,000  Level Albuquerque Center
Sat 07:15:42 AM 35.0790 -106.1640 267° West 485 558 34,000  Level FlightAware
Sat 07:16:27 AM 35.0720 -106.2960 266° West 492 566 34,000 71 Level FlightAware
Sat 07:17:07 AM 35.0660 -106.4130 266° West 497 572 34,100 71 Climbing FlightAware
Sat 07:17:52 AM 35.0590 -106.5370 266° West 501 577 34,100  Level FlightAware
Sat 07:18:32 AM 35.0540 -106.6470 267° West 500 575 34,100 -71 Level FlightAware
Sat 07:19:17 AM 35.0460 -106.7780 266° West 494 568 34,000 -71 Descending FlightAware
Sat 07:19:57 AM 35.0410 -106.8860 267° West 491 565 34,000  Level FlightAware
Sat 07:20:37 AM 35.0390 -106.9960 269° West 487 560 34,000  Level FlightAware
Sat 07:21:22 AM 35.0360 -107.1170 268° West 487 560 34,000  Level FlightAware
Sat 07:22:02 AM 35.0340 -107.2300 269° West 489 563 34,000  Level FlightAware
Sat 07:22:47 AM 35.0300 -107.3540 268° West 492 566 34,000 71 Level FlightAware
Sat 07:23:27 AM 35.0270 -107.4650 268° West 495 570 34,100 75 Climbing FlightAware
Sat 07:24:07 AM 35.0240 -107.5770 268° West 497 572 34,100  Level FlightAware
Sat 07:24:52 AM 35.0200 -107.7030 268° West 495 570 34,100  Level FlightAware
Sat 07:25:32 AM 35.0160 -107.8140 268° West 490 564 34,100 -71 Level FlightAware
Sat 07:26:17 AM 35.0120 -107.9350 268° West 488 562 34,000 -71 Descending FlightAware
Sat 07:26:57 AM 35.0080 -108.0450 267° West 485 558 34,000  Level FlightAware
Sat 07:27:37 AM 35.0050 -108.1570 268° West 486 559 34,000  Level FlightAware
Sat 07:28:22 AM 35.0010 -108.2750 268° West 490 564 34,000  Level FlightAware
Sat 07:29:02 AM 34.9970 -108.3910 268° West 495 570 34,000 71 Level FlightAware
Sat 07:29:47 AM 34.9920 -108.5170 267° West 495 570 34,100 71 Climbing FlightAware
Sat 07:30:27 AM 34.9880 -108.6160 267° West 495 570 34,100  Level FlightAware
Sat 07:31:07 AM 34.9840 -108.7110 267° West 495 570 34,100  Level FlightAware
Sat 07:31:47 AM 34.9800 -108.8060 267° West 495 570 34,100  Level FlightAware
Sat 07:32:27 AM 34.9750 -108.9010 266° West 495 570 34,100  Level FlightAware
Sat 07:33:17 AM 34.9700 -109.0200 267° West 495 570 34,100  Level FlightAware
Sat 07:33:57 AM 34.9660 -109.1150 267° West 495 570 34,100 -63 Level FlightAware
Sat 07:34:52 AM 34.9530 -109.3470 266° West 493 567 34,000  Descending FlightAware
Sat 07:35:37 AM 34.9440 -109.4870 266° West 494 568 34,100 71 Climbing FlightAware
Sat 07:36:17 AM 34.9360 -109.6000 265° West 490 564 34,100 -71 Level FlightAware
Sat 07:37:02 AM 34.9280 -109.7180 265° West 487 560 34,000 -75 Descending FlightAware
Sat 07:37:37 AM 34.9220 -109.8050 265° West 487 560 34,000  Level FlightAware
Sat 07:38:17 AM 34.9150 -109.8980 265° West 487 560 34,000  Level FlightAware
Sat 07:39:07 AM 34.9040 -110.0570 265° West 481 554 34,000  Level FlightAware
Sat 07:39:47 AM 34.8960 -110.1650 265° West 482 555 34,000  Level FlightAware
Sat 07:40:32 AM 34.8870 -110.2900 265° West 484 557 34,000 71 Level FlightAware
Sat 07:41:12 AM 34.8770 -110.3980 264° West 485 558 34,100 75 Climbing FlightAware
Sat 07:41:52 AM 34.8630 -110.5060 261° West 487 560 34,100 -71 Level FlightAware
Sat 07:42:37 AM 34.8480 -110.6290 262° West 488 562 34,000 -71 Descending FlightAware
Sat 07:43:17 AM 34.8360 -110.7350 262° West 489 563 34,000  Level FlightAware
Sat 07:43:57 AM 34.8220 -110.8440 261° West 490 564 34,000  Level FlightAware
Sat 07:44:42 AM 34.8060 -110.9690 261° West 490 564 34,000  Level FlightAware
Sat 07:45:22 AM 34.7930 -111.0780 262° West 491 565 34,000  Level FlightAware
Sat 07:46:02 AM 34.7790 -111.1840 261° West 493 567 34,000  Level FlightAware
Sat 07:46:47 AM 34.7640 -111.3100 262° West 493 567 34,000  Level FlightAware
Sat 07:47:27 AM 34.7500 -111.4170 261° West 494 568 34,000 71 Level FlightAware
Sat 07:48:12 AM 34.7340 -111.5460 261° West 496 571 34,100 71 Climbing FlightAware
Sat 07:48:52 AM 34.7200 -111.6530 261° West 493 567 34,100  Level FlightAware
Sat 07:49:32 AM 34.7060 -111.7600 261° West 493 567 34,100 -71 Level FlightAware
Sat 07:50:17 AM 34.6900 -111.8830 261° West 493 567 34,000 -71 Descending FlightAware
Sat 07:50:57 AM 34.6750 -111.9920 261° West 490 564 34,000  Level FlightAware
Sat 07:51:42 AM 34.6590 -112.1170 261° West 487 560 34,000  Level FlightAware
Sat 07:52:22 AM 34.6440 -112.2270 261° West 483 556 34,000  Level FlightAware
Sat 07:53:07 AM 34.6290 -112.3420 261° West 485 558 34,000  Level FlightAware
Sat 07:53:47 AM 34.6140 -112.4500 260° West 486 559 34,000  Level FlightAware
Sat 07:54:27 AM 34.5990 -112.5570 260° West 487 560 34,000  Level FlightAware
Sat 07:55:12 AM 34.5820 -112.6820 261° West 489 563 34,000  Level FlightAware
Sat 07:55:52 AM 34.5670 -112.7900 260° West 492 566 34,000 71 Level FlightAware
Sat 07:56:37 AM 34.5500 -112.9100 260° West 493 567 34,100 71 Climbing FlightAware
Sat 07:57:17 AM 34.5340 -113.0220 260° West 492 566 34,100 -75 Level FlightAware
Sat 07:57:57 AM 34.5190 -113.1300 260° West 488 562 34,000 -71 Descending FlightAware
Sat 07:58:42 AM 34.5020 -113.2510 260° West 488 562 34,000  Level FlightAware
Sat 07:59:22 AM 34.4860 -113.3590 260° West 486 559 34,000  Level FlightAware
Sat 08:00:07 AM 34.4690 -113.4800 260° West 487 560 34,000  Level FlightAware
Sat 08:00:47 AM 34.4530 -113.5870 260° West 486 559 34,000  Level FlightAware
Sat 08:01:32 AM 34.4350 -113.7080 260° West 485 558 34,000  Level FlightAware
Sat 08:02:12 AM 34.4190 -113.8150 260° West 488 562 34,000  Level FlightAware
Sat 08:02:52 AM 34.4030 -113.9230 260° West 492 566 34,000 71 Level FlightAware
Sat 08:03:37 AM 34.3850 -114.0450 260° West 494 568 34,100 71 Climbing FlightAware
Sat 08:04:17 AM 34.3680 -114.1540 259° West 492 566 34,100  Level FlightAware
Sat 08:05:02 AM 34.3500 -114.2780 260° West 491 565 34,100 -71 Level FlightAware
Sat 08:05:42 AM 34.3370 -114.3810 261° West 486 559 34,000 -75 Descending FlightAware
Sat 08:06:22 AM 34.3330 -114.4460 266° West 486 559 34,000  Level FlightAware
Sat 08:07:02 AM 34.3230 -114.5590 264° West 485 558 34,000  Level FlightAware
Sat 08:07:47 AM 34.3140 -114.6690 264° West 485 558 34,000  Level FlightAware
Sat 08:08:27 AM 34.3060 -114.7610 264° West 485 558 34,000  Level FlightAware
Sat 08:09:07 AM 34.2980 -114.8530 264° West 485 558 34,000  Level FlightAware
Sat 08:09:47 AM 34.2900 -114.9450 264° West 485 558 34,000  Level FlightAware
Sat 08:10:37 AM 34.2800 -115.0600 264° West 485 558 34,000 67 Level FlightAware
Sat 08:11:17 AM 34.2610 -115.2920 264° West 487 560 34,100  Climbing FlightAware
Sat 08:12:02 AM 34.2500 -115.4160 264° West 483 556 34,000 -60 Descending FlightAware
Sat 08:12:57 AM 34.2370 -115.5600 264° West 482 555 34,000  Level FlightAware
Sat 08:13:32 AM 34.2280 -115.6520 263° West 487 560 34,000  Level FlightAware
Sat 08:14:22 AM 34.2150 -115.7910 264° West 497 572 34,000 67 Level FlightAware
Sat 08:15:02 AM 34.2040 -115.9020 263° West 497 572 34,100 80 Climbing FlightAware
Sat 08:15:37 AM 34.1950 -116.0000 264° West 491 565 34,100 -80 Level FlightAware
Sat 08:16:17 AM 34.1850 -116.1010 263° West 490 564 34,000 -67 Descending FlightAware
Sat 08:17:07 AM 34.1710 -116.2370 263° West 487 560 34,000  Level FlightAware
Sat 08:17:57 AM 34.1580 -116.3750 264° West 482 555 34,000  Level FlightAware
Sat 08:18:32 AM 34.1480 -116.4680 263° West 483 556 34,000  Level FlightAware
Sat 08:19:17 AM 34.1360 -116.5890 263° West 488 562 34,000  Level FlightAware
Sat 08:19:57 AM 34.1260 -116.6870 263° West 491 565 34,000 67 Level FlightAware
Sat 08:20:47 AM 34.1110 -116.8310 263° West 492 566 34,100 67 Climbing FlightAware
Sat 08:21:27 AM 34.0990 -116.9430 263° West 492 566 34,100 -71 Level FlightAware
Sat 08:22:12 AM 34.0860 -117.0680 263° West 488 562 34,000 -71 Descending FlightAware
Sat 08:22:52 AM 34.0750 -117.1760 263° West 489 563 34,000  Level FlightAware
Sat 08:23:37 AM 34.0620 -117.2980 263° West 498 573 34,000  Level FlightAware
Sat 08:24:12 AM 34.0510 -117.3950 262° West 505 581 34,000 75 Level FlightAware
Sat 08:24:57 AM 34.0370 -117.5210 262° West 508 585 34,100 67 Climbing FlightAware
Sat 08:25:42 AM 34.0230 -117.6470 262° West 504 580 34,100 -71 Level FlightAware
Sat 08:26:22 AM 34.0100 -117.7600 262° West 498 573 34,000 -71 Descending FlightAware
Sat 08:27:07 AM 33.9970 -117.8780 262° West 494 568 34,000  Level FlightAware
Sat 08:27:47 AM 33.9850 -117.9870 262° West 489 563 34,000  Level FlightAware
Sat 08:28:27 AM 33.9730 -118.0940 262° West 485 558 34,000  Level FlightAware
Sat 08:29:12 AM 33.9580 -118.2170 262° West 483 556 34,000 353 Level FlightAware
Sat 08:29:52 AM 33.9460 -118.3240 262° West 489 563 34,500 975 Climbing FlightAware
Sat 08:30:32 AM 33.9330 -118.4320 262° West 491 565 35,300 1,059 Climbing FlightAware
Sat 08:31:17 AM 33.9220 -118.5510 264° West 485 558 36,000 494 Climbing FlightAware
Sat 08:31:57 AM 33.9130 -118.6580 264° West 484 557 36,000  Level FlightAware
Sat 08:32:37 AM 33.9030 -118.7650 264° West 487 560 36,000  Level FlightAware
Sat 08:33:22 AM 33.8930 -118.8890 264° West 485 558 36,000  Level FlightAware
Sat 08:34:02 AM 33.8830 -118.9940 263° West 486 559 36,000  Level FlightAware
Sat 08:34:47 AM 33.8720 -119.1140 264° West 483 556 36,000  Level FlightAware
Sat 08:35:27 AM 33.8610 -119.2230 263° West 481 554 36,000  Level FlightAware
Sat 08:36:07 AM 33.8520 -119.3270 264° West 480 552 36,000  Level FlightAware
Sat 08:36:52 AM 33.8400 -119.4460 263° West 481 554 36,000  Level FlightAware
Sat 08:37:32 AM 33.8300 -119.5530 264° West 484 557 36,000  Level FlightAware
Sat 08:38:17 AM 33.8180 -119.6730 263° West 485 558 36,000  Level FlightAware
Sat 08:38:57 AM 33.8070 -119.7830 263° West 487 560 36,000 71 Level FlightAware
Sat 08:39:42 AM 33.7950 -119.9040 263° West 487 560 36,100 71 Climbing FlightAware
Sat 08:40:22 AM 33.7850 -120.0090 263° West 488 562 36,100  Level FlightAware
Sat 08:41:02 AM 33.7740 -120.1120 263° West 489 563 36,100 -71 Level FlightAware
Sat 08:41:47 AM 33.7610 -120.2370 263° West 486 559 36,000 -71 Descending FlightAware
Sat 08:42:27 AM 33.7490 -120.3440 262° West 484 557 36,000  Level FlightAware
Sat 08:43:22 AM 33.7330 -120.4930 263° West 479 551 36,000  Level FlightAware
Sat 08:44:17 AM 33.7170 -120.6370 262° West 477 549 36,000  Level FlightAware
Sat 08:44:57 AM 33.7060 -120.7360 262° West 474 545 36,000  Level FlightAware
Sat 08:45:57 AM 33.6880 -120.8940 262° West 477 549 36,000  Level FlightAware
Sat 08:46:42 AM 33.6740 -121.0080 262° West 477 549 36,000  Level FlightAware
Sat 08:47:22 AM 33.6640 -121.0970 262° West 477 549 36,000 63 Level FlightAware
Sat 08:48:17 AM 33.6470 -121.2450 262° West 477 549 36,100 63 Climbing FlightAware
Sat 08:48:57 AM 33.6370 -121.3350 262° West 477 549 36,100  Level FlightAware
Sat 08:49:37 AM 33.6260 -121.4240 262° West 477 549 36,100  Level FlightAware
Sat 08:50:27 AM 33.6130 -121.5350 262° West 477 549 36,100  Level FlightAware
Sat 08:51:07 AM 33.6030 -121.6250 262° West 477 549 36,100  Level FlightAware
Sat 08:51:47 AM 33.5920 -121.7140 262° West 477 549 36,100  Level FlightAware
Sat 08:52:27 AM 33.5820 -121.8030 262° West 477 549 36,100  Level FlightAware
Sat 08:53:07 AM 33.5710 -121.8920 262° West 477 549 36,100  Level FlightAware
Sat 08:53:57 AM 33.5580 -122.0040 262° West 477 549 36,100  Level FlightAware
Sat 08:54:37 AM 33.5480 -122.0930 262° West 477 549 36,100  Level FlightAware
Sat 08:55:17 AM 33.5370 -122.1820 262° West 477 549 36,100  Level FlightAware
Sat 08:55:57 AM 33.5270 -122.2710 262° West 477 549 36,100  Level FlightAware
Sat 08:56:37 AM 33.5160 -122.3600 262° West 477 549 36,100  Level FlightAware
Sat 08:57:17 AM 33.5060 -122.4490 262° West 477 549 36,100 -8 Level FlightAware
Sat 09:04:00 AM 33.2980 -123.4347 255° West  Level FlightAware
Sat 09:05:00 AM 33.2663 -123.5808 256° West  Level FlightAware
Sat 09:06:00 AM 33.2354 -123.7271 256° West  Level FlightAware
Sat 09:07:00 AM 33.2043 -123.8733 256° West  Level FlightAware
Sat 09:08:00 AM 33.1730 -124.0193 256° West  Level FlightAware
Sat 09:09:00 AM 33.1416 -124.1653 256° West  Level FlightAware
Sat 09:09:57 AM 33.0667 -124.5167 255° West 460 529 36,000  Level Oakland Oceanic
Sat 09:10:00 AM 33.1100 -124.3111 256° West  Level FlightAware
Sat 09:10:31 AM 33.0500 -124.5833 255° West 459 528 36,000  Level Oakland Oceanic
Sat 09:11:00 AM 33.0729 -124.4542 239° Southwest  Level FlightAware
Sat 09:12:00 AM 33.0481 -124.5999 255° West  Level FlightAware
Sat 09:13:00 AM 33.0155 -124.7452 255° West  Level FlightAware
Sat 09:14:00 AM 32.9827 -124.8905 255° West  Level FlightAware
Sat 09:15:00 AM 32.9497 -125.0357 255° West  Level FlightAware
Sat 09:16:00 AM 32.8521 -125.4540 255° West 459 528 36,000  Level FlightAware
Sat 09:17:00 AM 32.8185 -125.5987 255° West 459 528 36,000  Level FlightAware
Sat 09:18:00 AM 32.7848 -125.7433 254° West 459 528 36,000  Level FlightAware
Sat 09:19:00 AM 32.7509 -125.8878 254° West 459 528 36,000  Level FlightAware
Sat 09:20:00 AM 32.7168 -126.0322 254° West 459 528 36,000  Level FlightAware
Sat 09:21:00 AM 32.6826 -126.1765 254° West 459 528 36,000  Level FlightAware
Sat 09:22:00 AM 32.6482 -126.3207 254° West 459 528 36,000  Level FlightAware
Sat 09:23:00 AM 32.6136 -126.4648 254° West 459 528 36,000  Level FlightAware
Sat 09:24:00 AM 32.5789 -126.6087 254° West 459 528 36,000  Level FlightAware
Sat 09:24:17 AM 32.5667 -126.6500 254° West 456 525 36,000  Level Oakland Oceanic
Sat 09:25:00 AM 32.5440 -126.7526 254° West 459 528 36,000  Level FlightAware
Sat 09:26:00 AM 32.5089 -126.8963 254° West 459 528 36,000  Level FlightAware
Sat 09:27:00 AM 32.4737 -127.0399 254° West 459 528 36,000  Level FlightAware
Sat 09:28:00 AM 32.4383 -127.1834 254° West 459 528 36,000  Level FlightAware
Sat 09:29:00 AM 32.4028 -127.3268 254° West 459 528 36,000  Level FlightAware
Sat 09:30:00 AM 32.3565 -127.5048 254° West 456 525 36,000  Level FlightAware
Sat 09:31:00 AM 32.3209 -127.6469 253° West 456 525 36,000  Level FlightAware
Sat 09:32:00 AM 32.2852 -127.7889 253° West 456 525 36,000  Level FlightAware
Sat 09:33:00 AM 32.2492 -127.9308 253° West 456 525 36,000  Level FlightAware
Sat 09:34:00 AM 32.2132 -128.0725 253° West 456 525 36,000  Level FlightAware
Sat 09:35:00 AM 32.1770 -128.2142 253° West 456 525 36,000  Level FlightAware
Sat 09:36:00 AM 32.1406 -128.3557 253° West 456 525 36,000  Level FlightAware
Sat 09:37:00 AM 32.1040 -128.4971 253° West 456 525 36,000  Level FlightAware
Sat 09:38:00 AM 32.0674 -128.6384 253° West 456 525 36,000  Level FlightAware
Sat 09:38:09 AM 32.0667 -128.6667 253° West 455 524 36,000  Level Oakland Oceanic
Sat 09:39:00 AM 32.0305 -128.7796 253° West 456 525 36,000  Level FlightAware
Sat 09:40:00 AM 31.9935 -128.9206 253° West 456 525 36,000  Level FlightAware
Sat 09:41:00 AM 31.9563 -129.0616 253° West 456 525 36,000  Level FlightAware
Sat 09:42:00 AM 31.9190 -129.2024 253° West 456 525 36,000  Level FlightAware
Sat 09:43:00 AM 31.8815 -129.3432 253° West 456 525 36,000  Level FlightAware
Sat 09:44:00 AM 31.8433 -129.5052 252° West 455 524 36,000  Level FlightAware
Sat 09:45:00 AM 31.8055 -129.6446 252° West 455 524 36,000  Level FlightAware
Sat 09:46:00 AM 31.7675 -129.7838 252° West 455 524 36,000  Level FlightAware
Sat 09:47:00 AM 31.7295 -129.9229 252° West 455 524 36,000  Level FlightAware
Sat 09:48:00 AM 31.6912 -130.0620 252° West 455 524 36,000  Level FlightAware
Sat 09:49:00 AM 31.6529 -130.2009 252° West 455 524 36,000  Level FlightAware
Sat 09:50:00 AM 31.6143 -130.3396 252° West 455 524 36,000  Level FlightAware
Sat 09:51:00 AM 31.5757 -130.4783 252° West 455 524 36,000  Level FlightAware
Sat 09:52:00 AM 31.5368 -130.6169 252° West 455 524 36,000  Level FlightAware
Sat 09:52:02 AM 31.5333 -130.6333 252° West 452 520 36,000  Level Oakland Oceanic
Sat 09:53:00 AM 31.4979 -130.7553 252° West 455 524 36,000  Level FlightAware
Sat 09:54:00 AM 31.4587 -130.8936 252° West 455 524 36,000  Level FlightAware
Sat 09:55:00 AM 31.4195 -131.0318 252° West 455 524 36,000  Level FlightAware
Sat 09:56:00 AM 31.3801 -131.1699 251° West 455 524 36,000  Level FlightAware
Sat 09:57:00 AM 31.3405 -131.3079 251° West 455 524 36,000  Level FlightAware
Sat 09:58:00 AM 31.2991 -131.4532 251° West 452 520 36,000  Level FlightAware
Sat 09:59:00 AM 31.2596 -131.5895 251° West 452 520 36,000  Level FlightAware
Sat 10:00:00 AM 31.2199 -131.7256 251° West 452 520 36,000  Level FlightAware
Sat 10:01:00 AM 31.1801 -131.8616 251° West 452 520 36,000  Level FlightAware
Sat 10:02:00 AM 31.1401 -131.9975 251° West 452 520 36,000  Level FlightAware
Sat 10:02:51 AM 31.1000 -132.1333 251° West 443 510 36,000  Level Oakland Oceanic
Sat 10:03:00 AM 31.1000 -132.1333 251° West 452 520 36,000  Level FlightAware
Sat 10:04:00 AM 31.0593 -132.2717 251° West 452 520 36,000  Level FlightAware
Sat 10:05:00 AM 31.0184 -132.4099 251° West 452 520 36,000  Level FlightAware
Sat 10:05:53 AM 30.9833 -132.5500 251° West 442 509 36,000  Level Oakland Oceanic
Sat 10:06:00 AM 30.9774 -132.5481 251° West 452 520 36,000  Level FlightAware
Sat 10:07:00 AM 30.9363 -132.6861 251° West 452 520 36,000  Level FlightAware
Sat 10:08:00 AM 30.8950 -132.8240 251° West 452 520 36,000  Level FlightAware
Sat 10:09:00 AM 30.8581 -132.9467 251° West 443 510 36,000  Level FlightAware
Sat 10:10:00 AM 30.8173 -133.0819 251° West 443 510 36,000  Level FlightAware
Sat 10:11:00 AM 30.7763 -133.2170 251° West 443 510 36,000  Level FlightAware
Sat 10:12:00 AM 30.7384 -133.3603 250° West 442 509 36,000  Level FlightAware
Sat 10:13:00 AM 30.6971 -133.4949 250° West 442 509 36,000  Level FlightAware
Sat 10:14:00 AM 30.6557 -133.6294 250° West 442 509 36,000  Level FlightAware
Sat 10:15:00 AM 30.6141 -133.7638 250° West 442 509 36,000  Level FlightAware
Sat 10:16:00 AM 30.5724 -133.8981 250° West 442 509 36,000  Level FlightAware
Sat 10:17:00 AM 30.5305 -134.0323 250° West 442 509 36,000  Level FlightAware
Sat 10:18:00 AM 30.4885 -134.1664 250° West 442 509 36,000  Level FlightAware
Sat 10:19:00 AM 30.4464 -134.3003 250° West 442 509 36,000  Level FlightAware
Sat 10:19:45 AM 30.4167 -134.4000 250° West 441 507 36,000  Level Oakland Oceanic
Sat 10:20:00 AM 30.4041 -134.4341 250° West 442 509 36,000  Level FlightAware
Sat 10:21:00 AM 30.3617 -134.5679 250° West 442 509 36,000  Level FlightAware
Sat 10:22:00 AM 30.3192 -134.7015 250° West 442 509 36,000  Level FlightAware
Sat 10:23:00 AM 30.2765 -134.8349 250° West 442 509 36,000  Level FlightAware
Sat 10:24:00 AM 30.2337 -134.9683 250° West 442 509 36,000  Level FlightAware
Sat 10:25:00 AM 30.2018 -135.0721 250° West 441 507 36,000  Level FlightAware
Sat 10:26:00 AM 30.1584 -135.2061 249° West 441 507 36,000  Level FlightAware
Sat 10:27:00 AM 30.1149 -135.3400 249° West 441 507 36,000  Level FlightAware
Sat 10:28:00 AM 30.0712 -135.4739 249° West 441 507 36,000  Level FlightAware
Sat 10:29:00 AM 30.0274 -135.6076 249° West 441 507 36,000  Level FlightAware
Sat 10:30:00 AM 29.9835 -135.7411 249° West 441 507 36,000  Level FlightAware
Sat 10:31:00 AM 29.9394 -135.8746 249° West 441 507 36,000  Level FlightAware
Sat 10:32:00 AM 29.8952 -136.0080 249° West 441 507 36,000  Level FlightAware
Sat 10:33:00 AM 29.8509 -136.1412 249° West 441 507 36,000  Level FlightAware
Sat 10:33:37 AM 29.8167 -136.2333 249° West 441 507 36,000  Level Oakland Oceanic
Sat 10:34:00 AM 29.8064 -136.2743 249° West 441 507 36,000  Level FlightAware
Sat 10:35:00 AM 29.7618 -136.4073 249° West 441 507 36,000  Level FlightAware
Sat 10:36:00 AM 29.7171 -136.5402 249° West 441 507 36,000  Level FlightAware
Sat 10:37:00 AM 29.6722 -136.6729 249° West 441 507 36,000  Level FlightAware
Sat 10:38:00 AM 29.6272 -136.8056 249° West 441 507 36,000  Level FlightAware
Sat 10:39:00 AM 29.5821 -136.9381 249° West 441 507 36,000  Level FlightAware
Sat 10:40:00 AM 29.5117 -137.1364 249° West 441 507 36,000  Level FlightAware
Sat 10:41:00 AM 29.4677 -137.2649 248° West 441 507 36,000  Level FlightAware
Sat 10:42:00 AM 29.4235 -137.3934 248° West 441 507 36,000  Level FlightAware
Sat 10:43:00 AM 29.3792 -137.5217 248° West 441 507 36,000  Level FlightAware
Sat 10:44:00 AM 29.3347 -137.6499 248° West 441 507 36,000  Level FlightAware
Sat 10:45:00 AM 29.2902 -137.7781 248° West 441 507 36,000  Level FlightAware
Sat 10:46:00 AM 29.2455 -137.9061 248° West 441 507 36,000  Level FlightAware
Sat 10:47:00 AM 29.2007 -138.0339 248° West 441 507 36,000  Level FlightAware
Sat 10:47:29 AM 29.2167 -138.0167 248° West 429 494 36,000  Level Oakland Oceanic
Sat 10:48:00 AM 29.1558 -138.1617 248° West 441 507 36,000  Level FlightAware
Sat 10:49:00 AM 29.1108 -138.2894 248° West 441 507 36,000  Level FlightAware
Sat 10:50:00 AM 29.0656 -138.4169 248° West 441 507 36,000  Level FlightAware
Sat 10:51:00 AM 29.0203 -138.5444 248° West 441 507 36,000  Level FlightAware
Sat 10:52:00 AM 28.9749 -138.6717 248° West 441 507 36,000  Level FlightAware
Sat 10:53:00 AM 28.9367 -138.7912 247° West 429 494 36,000  Level FlightAware
Sat 10:54:00 AM 28.8896 -138.9198 247° West 429 494 36,000  Level FlightAware
Sat 10:55:00 AM 28.8424 -139.0484 247° West 429 494 36,000  Level FlightAware
Sat 10:56:00 AM 28.7950 -139.1768 247° West 429 494 36,000  Level FlightAware
Sat 10:57:00 AM 28.7476 -139.3051 247° West 429 494 36,000  Level FlightAware
Sat 10:58:00 AM 28.7000 -139.4333 247° West 429 494 36,000  Level FlightAware
Sat 10:58:31 AM 28.7000 -139.4333 247° West 448 516 36,000  Level Oakland Oceanic
Sat 10:59:00 AM 28.6521 -139.5634 247° West 429 494 36,000  Level FlightAware
Sat 11:00:00 AM 28.6041 -139.6934 247° West 429 494 36,000  Level FlightAware
Sat 11:01:00 AM 28.5560 -139.8233 247° West 429 494 36,000  Level FlightAware
Sat 11:01:22 AM 28.5667 -139.7833 247° West 447 514 36,000  Level Oakland Oceanic
Sat 11:02:00 AM 28.5078 -139.9530 247° West 429 494 36,000  Level FlightAware
Sat 11:03:00 AM 28.4594 -140.0827 247° West 429 494 36,000  Level FlightAware
Sat 11:04:00 AM 28.4109 -140.2122 247° West 429 494 36,000  Level FlightAware
Sat 11:05:00 AM 28.3623 -140.3416 247° West 448 516 36,000  Level FlightAware
Sat 11:06:00 AM 28.3136 -140.4708 247° West 448 516 36,000  Level FlightAware
Sat 11:07:00 AM 28.2743 -140.5650 247° West 447 514 36,000  Level FlightAware
Sat 11:08:00 AM 28.2251 -140.6949 247° West 447 514 36,000  Level FlightAware
Sat 11:09:00 AM 28.1758 -140.8246 247° West 447 514 36,000  Level FlightAware
Sat 11:10:00 AM 28.1264 -140.9542 247° West 447 514 36,000  Level FlightAware
Sat 11:11:00 AM 28.0769 -141.0837 247° West 447 514 36,000  Level FlightAware
Sat 11:12:00 AM 28.0272 -141.2131 246° West 447 514 36,000  Level FlightAware
Sat 11:13:00 AM 27.9775 -141.3424 246° West 447 514 36,000  Level FlightAware
Sat 11:14:00 AM 27.9276 -141.4715 246° West 447 514 36,000  Level FlightAware
Sat 11:15:00 AM 27.8776 -141.6005 246° West 447 514 36,000  Level FlightAware
Sat 11:15:14 AM 27.9000 -141.5833 246° West 451 519 36,000  Level Oakland Oceanic
Sat 11:16:00 AM 27.8274 -141.7294 246° West 447 514 36,000  Level FlightAware
Sat 11:17:00 AM 27.7772 -141.8582 246° West 447 514 36,000  Level FlightAware
Sat 11:18:00 AM 27.7268 -141.9869 246° West 447 514 36,000  Level FlightAware
Sat 11:19:00 AM 27.6763 -142.1154 246° West 447 514 36,000  Level FlightAware
Sat 11:20:00 AM 27.6257 -142.2439 246° West 447 514 36,000  Level FlightAware
Sat 11:21:00 AM 27.5938 -142.3580 246° West 451 519 36,000  Level FlightAware
Sat 11:22:00 AM 27.5423 -142.4867 246° West 451 519 36,000  Level FlightAware
Sat 11:23:00 AM 27.4907 -142.6153 246° West 451 519 36,000  Level FlightAware
Sat 11:24:00 AM 27.4390 -142.7437 246° West 451 519 36,000  Level FlightAware
Sat 11:25:00 AM 27.3872 -142.8720 246° West 451 519 36,000  Level FlightAware
Sat 11:26:00 AM 27.3353 -143.0002 245° Southwest 451 519 36,000  Level FlightAware
Sat 11:27:00 AM 27.2832 -143.1283 245° Southwest 451 519 36,000  Level FlightAware
Sat 11:28:00 AM 27.2311 -143.2563 245° Southwest 451 519 36,000  Level FlightAware
Sat 11:29:00 AM 27.1788 -143.3841 245° Southwest 451 519 36,000  Level FlightAware
Sat 11:29:05 AM 27.1833 -143.3500 245° Southwest 453 521 36,000  Level Oakland Oceanic
Sat 11:30:00 AM 27.1264 -143.5119 245° Southwest 451 519 36,000  Level FlightAware
Sat 11:31:00 AM 27.0739 -143.6395 245° Southwest 451 519 36,000  Level FlightAware
Sat 11:32:00 AM 27.0213 -143.7670 245° Southwest 451 519 36,000  Level FlightAware
Sat 11:33:00 AM 26.9685 -143.8943 245° Southwest 451 519 36,000  Level FlightAware
Sat 11:34:00 AM 26.9157 -144.0216 245° Southwest 451 519 36,000  Level FlightAware
Sat 11:35:00 AM 26.8661 -144.1240 245° Southwest 453 521 36,000  Level FlightAware
Sat 11:36:00 AM 26.8129 -144.2525 245° Southwest 453 521 36,000  Level FlightAware
Sat 11:37:00 AM 26.7595 -144.3810 245° Southwest 453 521 36,000  Level FlightAware
Sat 11:38:00 AM 26.7060 -144.5093 245° Southwest 453 521 36,000  Level FlightAware
Sat 11:39:00 AM 26.6523 -144.6375 245° Southwest 453 521 36,000  Level FlightAware
Sat 11:40:00 AM 26.5986 -144.7656 245° Southwest 453 521 36,000  Level FlightAware
Sat 11:41:00 AM 26.5447 -144.8936 245° Southwest 453 521 36,000  Level FlightAware
Sat 11:42:00 AM 26.4908 -145.0214 245° Southwest 453 521 36,000  Level FlightAware
Sat 11:42:57 AM 26.4500 -145.1167 245° Southwest 457 526 36,000  Level Oakland Oceanic
Sat 11:43:00 AM 26.4367 -145.1492 245° Southwest 453 521 36,000  Level FlightAware
Sat 11:44:00 AM 26.3825 -145.2768 245° Southwest 453 521 36,000  Level FlightAware
Sat 11:45:00 AM 26.3282 -145.4043 245° Southwest 453 521 36,000  Level FlightAware
Sat 11:46:00 AM 26.2738 -145.5316 244° Southwest 453 521 36,000  Level FlightAware
Sat 11:47:00 AM 26.2192 -145.6589 244° Southwest 453 521 36,000  Level FlightAware
Sat 11:48:00 AM 26.1646 -145.7860 244° Southwest 453 521 36,000  Level FlightAware
Sat 11:49:00 AM 26.1132 -145.9049 244° Southwest 457 526 36,000  Level FlightAware
Sat 11:50:00 AM 26.0567 -146.0359 244° Southwest 457 526 36,000  Level FlightAware
Sat 11:51:00 AM 26.0000 -146.1667 244° Southwest 457 526 36,000  Level FlightAware
Sat 11:51:10 AM 26.0000 -146.1667 244° Southwest 466 536 36,000  Level Oakland Oceanic
Sat 11:52:00 AM 25.9431 -146.2980 244° Southwest 457 526 36,000  Level FlightAware
Sat 11:53:00 AM 25.8860 -146.4293 244° Southwest 457 526 36,000  Level FlightAware
Sat 11:54:00 AM 25.8289 -146.5604 244° Southwest 457 526 36,000  Level FlightAware
Sat 11:55:00 AM 25.7716 -146.6914 244° Southwest 457 526 36,000  Level FlightAware
Sat 11:56:00 AM 25.7142 -146.8222 244° Southwest 457 526 36,000  Level FlightAware
Sat 11:56:49 AM 25.7000 -146.8833 244° Southwest 467 537 36,000  Level Oakland Oceanic
Sat 11:57:00 AM 25.6567 -146.9530 244° Southwest 466 536 36,000  Level FlightAware
Sat 11:58:00 AM 25.5990 -147.0836 244° Southwest 466 536 36,000  Level FlightAware
Sat 11:59:00 AM 25.5413 -147.2140 244° Southwest 466 536 36,000  Level FlightAware
Sat 12:00:00 PM 25.4834 -147.3444 244° Southwest 466 536 36,000  Level FlightAware
Sat 12:01:00 PM 25.4255 -147.4746 244° Southwest 466 536 36,000  Level FlightAware
Sat 12:02:00 PM 25.3674 -147.6047 244° Southwest 466 536 36,000  Level FlightAware
Sat 12:03:00 PM 25.3548 -147.6575 244° Southwest 467 537 36,000  Level FlightAware
Sat 12:04:00 PM 25.2969 -147.7861 243° Southwest 467 537 36,000  Level FlightAware
Sat 12:05:00 PM 25.2388 -147.9145 243° Southwest 467 537 36,000  Level FlightAware
Sat 12:06:00 PM 25.1807 -148.0429 243° Southwest 467 537 36,000  Level FlightAware
Sat 12:07:00 PM 25.1224 -148.1711 243° Southwest 467 537 36,000  Level FlightAware
Sat 12:08:00 PM 25.0640 -148.2992 243° Southwest 467 537 36,000  Level FlightAware
Sat 12:09:00 PM 25.0056 -148.4272 243° Southwest 467 537 36,000  Level FlightAware
Sat 12:10:00 PM 24.9470 -148.5550 243° Southwest 467 537 36,000  Level FlightAware
Sat 12:10:41 PM 24.9000 -148.6500 243° Southwest 470 541 36,000  Level Oakland Oceanic
Sat 12:11:00 PM 24.8883 -148.6827 243° Southwest 467 537 36,000  Level FlightAware
Sat 12:12:00 PM 24.8295 -148.8103 243° Southwest 467 537 36,000  Level FlightAware
Sat 12:13:00 PM 24.7705 -148.9378 243° Southwest 467 537 36,000  Level FlightAware
Sat 12:14:00 PM 24.7115 -149.0652 243° Southwest 467 537 36,000  Level FlightAware
Sat 12:15:00 PM 24.6524 -149.1924 243° Southwest 467 537 36,000  Level FlightAware
Sat 12:16:00 PM 24.5932 -149.3196 243° Southwest 467 537 36,000  Level FlightAware
Sat 12:17:00 PM 24.4836 -149.5483 243° Southwest 470 541 36,000  Level FlightAware
Sat 12:18:00 PM 24.4237 -149.6761 243° Southwest 470 541 36,000  Level FlightAware
Sat 12:19:00 PM 24.3636 -149.8038 243° Southwest 470 541 36,000  Level FlightAware
Sat 12:20:00 PM 24.3035 -149.9314 243° Southwest 470 541 36,000  Level FlightAware
Sat 12:21:00 PM 24.2433 -150.0589 243° Southwest 470 541 36,000  Level FlightAware
Sat 12:22:00 PM 24.1829 -150.1862 243° Southwest 470 541 36,000  Level FlightAware
Sat 12:23:00 PM 24.1225 -150.3135 242° Southwest 470 541 36,000  Level FlightAware
Sat 12:24:00 PM 24.0619 -150.4406 242° Southwest 470 541 36,000  Level FlightAware
Sat 12:24:33 PM 24.0833 -150.4167 242° Southwest 472 543 36,000  Level Oakland Oceanic
Sat 12:25:00 PM 24.0012 -150.5676 242° Southwest 470 541 36,000  Level FlightAware
Sat 12:26:00 PM 23.9405 -150.6945 242° Southwest 470 541 36,000  Level FlightAware
Sat 12:27:00 PM 23.8796 -150.8212 242° Southwest 470 541 36,000  Level FlightAware
Sat 12:28:00 PM 23.8186 -150.9478 242° Southwest 470 541 36,000  Level FlightAware
Sat 12:29:00 PM 23.7575 -151.0744 242° Southwest 470 541 36,000  Level FlightAware
Sat 12:30:00 PM 23.7103 -151.1854 242° Southwest 472 543 36,000  Level FlightAware
Sat 12:31:00 PM 23.6478 -151.3131 242° Southwest 472 543 36,000  Level FlightAware
Sat 12:32:00 PM 23.5851 -151.4407 242° Southwest 472 543 36,000  Level FlightAware
Sat 12:33:00 PM 23.5224 -151.5681 242° Southwest 472 543 36,000  Level FlightAware
Sat 12:34:00 PM 23.4595 -151.6954 242° Southwest 472 543 36,000  Level FlightAware
Sat 12:35:00 PM 23.3965 -151.8226 242° Southwest 472 543 36,000  Level FlightAware
Sat 12:36:00 PM 23.3335 -151.9497 242° Southwest 472 543 36,000  Level FlightAware
Sat 12:37:00 PM 23.2703 -152.0767 242° Southwest 472 543 36,000  Level FlightAware
Sat 12:38:00 PM 23.2071 -152.2035 241° Southwest 472 543 36,000  Level FlightAware
Sat 12:38:25 PM 23.2333 -152.1667 241° Southwest 472 543 36,000  Level Oakland Oceanic
Sat 12:39:00 PM 23.1437 -152.3302 241° Southwest 472 543 36,000  Level FlightAware
Sat 12:40:00 PM 23.0802 -152.4568 241° Southwest 472 543 36,000  Level FlightAware
Sat 12:41:00 PM 23.0167 -152.5833 242° Southwest 472 543 36,000  Level FlightAware
Sat 12:42:00 PM 22.9580 -152.7020 242° Southwest 472 543 36,000  Level FlightAware
Sat 12:42:12 PM 22.9833 -152.6667 242° Southwest 470 541 36,000  Level Honolulu Center
Sat 12:43:00 PM 22.8993 -152.8206 242° Southwest 472 543 36,000  Level FlightAware
Sat 12:43:12 PM 22.9167 -152.7833 238° Southwest 470 541 36,000  Level Honolulu Center
Sat 12:44:00 PM 22.8404 -152.9391 242° Southwest 472 543 36,000  Level FlightAware
Sat 12:44:12 PM 22.8667 -152.9167 248° West 450 518 36,000  Level Honolulu Center
Sat 12:45:00 PM 22.7815 -153.0575 242° Southwest 472 543 36,000  Level FlightAware
Sat 12:45:12 PM 22.8333 -153.0500 255° West 470 541 36,000  Level Honolulu Center
Sat 12:46:00 PM 22.7225 -153.1758 242° Southwest 472 543 36,000  Level FlightAware
Sat 12:46:12 PM 22.7833 -153.1833 248° West 470 541 36,000  Level Honolulu Center
Sat 12:47:00 PM 22.6634 -153.2939 242° Southwest 472 543 36,000  Level FlightAware
Sat 12:47:13 PM 22.7500 -153.3167 255° West 470 541 36,000  Level Honolulu Center
Sat 12:48:13 PM 22.7000 -153.4500 248° West 480 552 36,000  Level Honolulu Center
Sat 12:49:13 PM 22.6667 -153.5833 255° West 470 541 36,000  Level Honolulu Center
Sat 12:50:13 PM 22.6333 -153.7167 255° West 470 541 36,000  Level Honolulu Center
Sat 12:51:13 PM 22.5833 -153.8667 250° West 480 552 36,000  Level Honolulu Center
Sat 12:52:13 PM 22.5500 -154.0000 255° West 470 541 36,000  Level Honolulu Center
Sat 12:53:13 PM 22.5000 -154.1333 248° West 470 541 36,000  Level Honolulu Center
Sat 12:54:13 PM 22.4667 -154.2667 255° West 470 541 36,000  Level Honolulu Center
Sat 12:55:13 PM 22.4167 -154.4000 248° West 470 541 36,000  Level Honolulu Center
Sat 12:56:13 PM 22.3833 -154.5333 255° West 470 541 36,000  Level Honolulu Center
Sat 12:57:14 PM 22.3333 -154.6667 248° West 470 541 36,000  Level Honolulu Center
Sat 12:58:14 PM 22.2833 -154.8000 248° West 470 541 36,000  Level Honolulu Center
Sat 12:59:14 PM 22.2500 -154.9333 255° West 470 541 36,000  Level Honolulu Center
Sat 01:00:14 PM 22.2000 -155.0667 248° West 470 541 36,000  Level Honolulu Center
Sat 01:01:14 PM 22.1667 -155.2000 255° West 470 541 36,000  Level Honolulu Center
Sat 01:02:14 PM 22.1167 -155.3333 248° West 470 541 36,000  Level Honolulu Center
Sat 01:03:14 PM 22.0833 -155.4667 255° West 460 529 36,000 -50 Level Honolulu Center
Sat 01:04:14 PM 22.0333 -155.6000 248° West 460 529 35,900  Descending Honolulu Center
Sat 01:05:15 PM 22.0000 -155.7333 255° West 470 541 36,000 50 Climbing Honolulu Center
Sat 01:06:15 PM 21.9500 -155.8500 245° Southwest 470 541 36,000 -550 Level Honolulu Center
Sat 01:07:15 PM 21.9167 -155.9833 255° West 470 541 34,900 -1,850 Descending Honolulu Center
Sat 01:08:15 PM 21.8667 -156.1167 248° West 460 529 32,300 -2,500 Descending Honolulu Center
Sat 01:09:15 PM 21.8167 -156.2500 248° West 460 529 29,900 -2,250 Descending Honolulu Center
Sat 01:10:15 PM 21.7833 -156.3833 255° West 450 518 27,800 -2,200 Descending Honolulu Center
Sat 01:11:15 PM 21.7500 -156.5000 253° West 430 495 25,500 -2,200 Descending Honolulu Center
Sat 01:12:15 PM 21.7000 -156.6167 245° Southwest 420 483 23,400 -2,100 Descending Honolulu Center
Sat 01:13:15 PM 21.6667 -156.7167 250° West 420 483 21,300 -2,250 Descending Honolulu Center
Sat 01:14:15 PM 21.6167 -156.8500 248° West 400 460 18,900 -2,231 Descending Honolulu Center
Sat 01:15:16 PM 21.5833 -156.9667 253° West 390 449 16,800 -2,132 Descending Honolulu Center
Sat 01:16:16 PM 21.5500 -157.0667 250° West 380 437 14,600 -1,117 Descending Honolulu Center
Sat 01:21:32 PM 21.3810 -157.5740 250° West 289 333 9,800 -923 Descending FlightAware
Sat 01:22:07 PM 21.3620 -157.6080 239° Southwest 286 329 9,200 -1,275 Descending FlightAware
Sat 01:22:52 PM 21.3320 -157.6670 241° Southwest 280 322 8,100 -1,114 Descending FlightAware
Sat 01:23:17 PM 21.3170 -157.6970 242° Southwest 272 313 7,900 -300 Descending FlightAware
Sat 01:23:32 PM 21.3100 -157.7100 240° Southwest 276 318 7,900 -240 Level FlightAware
Sat 01:23:42 PM 21.3030 -157.7250 243° Southwest 281 323 7,800  Descending FlightAware
Sat 01:24:32 PM 21.2730 -157.7840 241° Southwest 272 313 7,900 80 Climbing FlightAware
Sat 01:24:57 PM 21.2590 -157.8120 242° Southwest 272 313 7,900 -120 Level FlightAware
Sat 01:25:22 PM 21.2400 -157.8470 240° Southwest 266 306 7,800 -200 Descending FlightAware
Sat 01:25:57 PM 21.2200 -157.8850 241° Southwest 260 299 7,700 -1,477 Descending FlightAware
Sat 01:26:27 PM 21.2050 -157.9170 243° Southwest 246 283 6,200 -2,640 Descending FlightAware
Sat 01:26:47 PM 21.1940 -157.9410 244° Southwest 241 277 5,500 -933 Descending FlightAware
Sat 01:27:12 PM 21.1830 -157.9650 244° Southwest 241 277 5,500  Level FlightAware

Login

Don't have an account? Register now (free) for customized features, flight alerts, and more!